Monday, October 23, 2017, 1:22 PM EDT
Back to Local

KLNS, Lancaster Airport

Location: Lititz, PA, United States Lat: 40.117
Local Time: 1:22 PM EDT (17:22 GMT) Lon: -76.3
Time Zone: US/Eastern Elev: 403 ft

Show me the last for .
Show Coded

Time T Td Feel RH Dir Speed Gust Alt SLP Vis Weather Sky Remarks
2017-10-23 12:53 70 65 - 84 130° 6 - 30.15 30.14 10 FEW022 BKN026 OVC039 None
2017-10-23 11:53 70 65 - 84 170° 7 - 30.19 30.18 10 BKN015 BKN060 None
2017-10-23 11:27 68 64 - 87 170° 7 - 30.20 - 10 OVC011 None
2017-10-23 10:53 65 64 - 96 140° 8 - 30.21 30.21 10 OVC009 None
2017-10-23 09:53 63 63 - 100 150° 6 - 30.24 30.24 6 BR OVC005 None
2017-10-23 09:18 62 62 - 100 - Calm - 30.25 - 3 BR OVC005 None
2017-10-23 09:07 62 62 - 100 - Calm - 30.25 - 2 BR OVC005 None
2017-10-23 08:53 62 62 - 100 - Calm - 30.25 30.25 1 BR OVC004 None
2017-10-23 08:41 61 61 - 100 - Calm - 30.25 - 1 BR OVC004 None
2017-10-23 08:03 59 59 - 100 - Calm - 30.26 - 0 BR VV004 None
2017-10-23 07:53 59 59 - 100 - Calm - 30.26 30.25 0 FG VV004 6-hr Min Temp (8am): 51.1°F
6-hr Max Temp (8am): 59.0°F
2017-10-23 07:41 58 58 - 100 70° 3 - 30.26 - 0 FG VV004 None
2017-10-23 07:27 58 58 - 100 100° 3 - 30.26 - 0 BR VV004 None
2017-10-23 07:08 58 58 - 100 - Calm - 30.26 - 1 BR OVC004 None
2017-10-23 06:53 58 58 - 100 80° 3 - 30.26 30.25 2 BR OVC004 None
2017-10-23 06:48 57 57 - 100 90° 3 - 30.26 - 1 BR OVC003 None
2017-10-23 06:24 58 58 - 100 - Calm - 30.27 - 2 BR OVC003 None
2017-10-23 05:53 57 57 - 100 - Calm - 30.28 30.27 3 BR OVC004 None
2017-10-23 05:44 57 57 - 100 - Calm - 30.28 - 2 BR OVC005 None
2017-10-23 05:27 56 56 - 100 70° 3 - 30.28 - 1 BR OVC006 None
2017-10-23 05:11 56 56 - 100 70° 5 - 30.28 - 2 BR OVC006 None
2017-10-23 04:53 56 56 - 100 70° 5 - 30.28 30.27 3 BR OVC005 None
2017-10-23 04:39 55 55 - 100 60° 5 - 30.28 - 2 BR OVC006 None
2017-10-23 04:23 55 55 - 100 80° 3 - 30.28 - 0 FG OVC006 None
2017-10-23 04:01 54 54 - 100 90° 3 - 30.29 - 0 FG VV006 None
2017-10-23 03:53 54 54 - 100 100° 5 - 30.29 30.28 0 FG OVC006 None
2017-10-23 03:28 54 54 - 100 90° 5 - 30.29 - 0 FG VV005 None
2017-10-23 03:23 53 53 - 100 70° 3 - 30.29 - 0 FG VV004 None
2017-10-23 03:11 51 51 - 100 - Calm - 30.29 - 0 FG VV004 None
2017-10-23 02:53 52 52 - 100 100° 6 - 30.29 30.29 0 FG VV005 None
2017-10-23 02:18 52 52 - 100 90° 5 - 30.31 - 0 FG VV004 None
2017-10-23 02:09 51 51 - 100 80° 5 - 30.31 - 0 FG VV005 None
2017-10-23 01:53 53 53 - 100 90° 5 - 30.31 30.31 0 FG VV007 6-hr Min Temp (2am): 52.0°F
6-hr Max Temp (2am): 59.0°F
2017-10-23 01:40 54 54 - 100 80° 5 - 30.31 - 0 FG CLR None
2017-10-23 01:30 53 53 - 100 80° 5 - 30.31 - 1 BR CLR Variable visibility
2017-10-23 01:12 54 54 - 100 60° 3 - 30.32 - 5 BR SCT008 None
2017-10-23 00:53 54 53 - 96 80° 3 - 30.32 30.31 8 BKN007 24-hr Min Temp (1am): 43.0°F
24-hr Max Temp (1am): 73.9°F
2017-10-23 00:39 53 53 - 100 70° 5 - 30.31 - 9 BKN008 None
2017-10-23 00:27 53 52 - 96 70° 5 - 30.32 - 10 SCT009 None
2017-10-22 23:53 53 50 - 89 70° 5 - 30.33 30.32 10 CLR None
2017-10-22 22:53 54 47 - 77 80° 5 - 30.34 30.34 10 CLR None
2017-10-22 21:53 54 46 - 74 80° 6 - 30.35 30.34 10 CLR None
2017-10-22 20:53 59 46 - 62 100° 3 - 30.34 30.34 10 CLR None
2017-10-22 19:53 61 47 - 59 110° 5 - 30.33 30.33 10 CLR 6-hr Min Temp (8pm): 57.9°F
6-hr Max Temp (8pm): 73.9°F
2017-10-22 18:53 61 50 - 67 70° 5 - 30.32 30.32 10 CLR None
2017-10-22 17:53 68 51 - 54 150° 5 - 30.31 30.31 10 CLR None
2017-10-22 16:53 71 49 76 45 160° 8 - 30.32 30.32 10 CLR None
2017-10-22 15:53 73 43 - 33 170° 10 - 30.33 30.32 10 CLR None
2017-10-22 14:53 74 45 - 35 150° 12 - 30.33 30.33 10 CLR None
2017-10-22 13:53 74 45 - 35 150° 8 - 30.35 30.34 10 CLR 6-hr Min Temp (2pm): 44.1°F
6-hr Max Temp (2pm): 73.9°F

Support USWX by starting your Amazon purchase here.